sensor_id;sensor_type;location;lat;lon;timestamp;P1;durP1;ratioP1;P2;durP2;ratioP2
68653;SDS011;55636;51.108;13.622;2023-04-24T00:00:03;6.43;;;5.83;;
68653;SDS011;55636;51.108;13.622;2023-04-24T00:01:07;7.50;;;5.90;;
68653;SDS011;55636;51.108;13.622;2023-04-24T00:02:10;6.57;;;5.87;;
68653;SDS011;55636;51.108;13.622;2023-04-24T00:03:13;6.67;;;5.80;;
68653;SDS011;55636;51.108;13.622;2023-04-24T00:04:16;6.23;;;5.63;;
68653;SDS011;55636;51.108;13.622;2023-04-24T00:05:19;6.67;;;6.07;;
68653;SDS011;55636;51.108;13.622;2023-04-24T00:06:21;6.30;;;5.70;;
68653;SDS011;55636;51.108;13.622;2023-04-24T00:07:25;7.37;;;6.37;;
68653;SDS011;55636;51.108;13.622;2023-04-24T00:08:27;6.40;;;5.80;;
68653;SDS011;55636;51.108;13.622;2023-04-24T00:09:30;6.30;;;5.70;;
68653;SDS011;55636;51.108;13.622;2023-04-24T00:10:32;5.87;;;5.30;;
68653;SDS011;55636;51.108;13.622;2023-04-24T00:11:35;6.70;;;6.07;;
68653;SDS011;55636;51.108;13.622;2023-04-24T00:12:38;6.80;;;6.00;;
68653;SDS011;55636;51.108;13.622;2023-04-24T00:13:40;6.60;;;6.00;;
68653;SDS011;55636;51.108;13.622;2023-04-24T00:14:43;6.47;;;5.77;;
68653;SDS011;55636;51.108;13.622;2023-04-24T00:15:45;6.33;;;5.73;;
68653;SDS011;55636;51.108;13.622;2023-04-24T00:16:47;6.57;;;5.87;;
68653;SDS011;55636;51.108;13.622;2023-04-24T00:17:50;6.43;;;5.83;;
68653;SDS011;55636;51.108;13.622;2023-04-24T00:18:52;6.20;;;5.60;;
68653;SDS011;55636;51.108;13.622;2023-04-24T00:19:58;6.90;;;5.60;;
68653;SDS011;55636;51.108;13.622;2023-04-24T00:21:00;6.30;;;5.70;;
68653;SDS011;55636;51.108;13.622;2023-04-24T00:22:03;6.50;;;5.60;;
68653;SDS011;55636;51.108;13.622;2023-04-24T00:23:05;5.93;;;5.43;;
68653;SDS011;55636;51.108;13.622;2023-04-24T00:24:09;5.80;;;5.20;;
68653;SDS011;55636;51.108;13.622;2023-04-24T00:25:11;5.70;;;5.13;;
68653;SDS011;55636;51.108;13.622;2023-04-24T00:26:13;5.80;;;5.20;;
68653;SDS011;55636;51.108;13.622;2023-04-24T00:27:15;6.17;;;5.30;;
68653;SDS011;55636;51.108;13.622;2023-04-24T00:28:18;5.43;;;4.93;;
68653;SDS011;55636;51.108;13.622;2023-04-24T00:29:20;5.90;;;5.30;;
68653;SDS011;55636;51.108;13.622;2023-04-24T00:30:22;5.30;;;4.80;;
68653;SDS011;55636;51.108;13.622;2023-04-24T00:31:26;5.80;;;5.20;;
68653;SDS011;55636;51.108;13.622;2023-04-24T00:32:29;5.70;;;5.20;;
68653;SDS011;55636;51.108;13.622;2023-04-24T00:33:32;6.03;;;5.37;;
68653;SDS011;55636;51.108;13.622;2023-04-24T00:34:34;5.57;;;5.03;;
68653;SDS011;55636;51.108;13.622;2023-04-24T00:35:37;6.60;;;5.13;;
68653;SDS011;55636;51.108;13.622;2023-04-24T00:36:39;6.70;;;4.90;;
68653;SDS011;55636;51.108;13.622;2023-04-24T00:37:42;5.57;;;5.07;;
68653;SDS011;55636;51.108;13.622;2023-04-24T00:38:45;5.40;;;4.90;;
68653;SDS011;55636;51.108;13.622;2023-04-24T00:39:47;5.37;;;4.87;;
68653;SDS011;55636;51.108;13.622;2023-04-24T00:40:50;5.20;;;4.70;;
68653;SDS011;55636;51.108;13.622;2023-04-24T00:41:53;5.50;;;5.00;;
68653;SDS011;55636;51.108;13.622;2023-04-24T00:42:55;5.43;;;4.73;;
68653;SDS011;55636;51.108;13.622;2023-04-24T00:43:58;5.23;;;4.67;;
68653;SDS011;55636;51.108;13.622;2023-04-24T00:45:01;5.20;;;4.70;;
68653;SDS011;55636;51.108;13.622;2023-04-24T00:46:05;5.90;;;4.60;;
68653;SDS011;55636;51.108;13.622;2023-04-24T00:47:08;5.30;;;4.80;;
68653;SDS011;55636;51.108;13.622;2023-04-24T00:48:10;5.50;;;4.90;;
68653;SDS011;55636;51.108;13.622;2023-04-24T00:49:14;5.33;;;4.80;;
68653;SDS011;55636;51.108;13.622;2023-04-24T00:50:16;5.47;;;4.90;;
68653;SDS011;55636;51.108;13.622;2023-04-24T00:51:19;5.03;;;4.53;;
68653;SDS011;55636;51.108;13.622;2023-04-24T00:52:21;5.07;;;4.57;;
68653;SDS011;55636;51.108;13.622;2023-04-24T00:53:26;5.83;;;4.60;;
68653;SDS011;55636;51.108;13.622;2023-04-24T00:54:28;5.53;;;4.90;;
68653;SDS011;55636;51.108;13.622;2023-04-24T00:55:31;5.77;;;5.20;;
68653;SDS011;55636;51.108;13.622;2023-04-24T00:56:34;5.60;;;4.80;;
68653;SDS011;55636;51.108;13.622;2023-04-24T00:57:38;5.43;;;4.63;;
68653;SDS011;55636;51.108;13.622;2023-04-24T00:58:41;5.03;;;4.57;;
68653;SDS011;55636;51.108;13.622;2023-04-24T00:59:44;5.17;;;4.67;;
68653;SDS011;55636;51.108;13.622;2023-04-24T01:00:46;5.67;;;4.80;;
68653;SDS011;55636;51.108;13.622;2023-04-24T01:01:51;6.67;;;4.87;;
68653;SDS011;55636;51.108;13.622;2023-04-24T01:02:53;5.30;;;4.80;;
68653;SDS011;55636;51.108;13.622;2023-04-24T01:03:57;5.10;;;4.57;;
68653;SDS011;55636;51.108;13.622;2023-04-24T01:05:01;6.00;;;5.07;;
68653;SDS011;55636;51.108;13.622;2023-04-24T01:06:04;4.97;;;4.57;;
68653;SDS011;55636;51.108;13.622;2023-04-24T01:07:07;4.97;;;4.47;;
68653;SDS011;55636;51.108;13.622;2023-04-24T01:08:13;4.47;;;4.07;;
68653;SDS011;55636;51.108;13.622;2023-04-24T01:09:16;4.60;;;4.13;;
68653;SDS011;55636;51.108;13.622;2023-04-24T01:10:19;5.00;;;4.50;;
68653;SDS011;55636;51.108;13.622;2023-04-24T01:11:22;5.80;;;4.57;;
68653;SDS011;55636;51.108;13.622;2023-04-24T01:12:24;4.70;;;4.20;;
68653;SDS011;55636;51.108;13.622;2023-04-24T01:13:27;4.93;;;4.43;;
68653;SDS011;55636;51.108;13.622;2023-04-24T01:14:29;4.57;;;4.17;;
68653;SDS011;55636;51.108;13.622;2023-04-24T01:15:32;4.63;;;4.23;;
68653;SDS011;55636;51.108;13.622;2023-04-24T01:16:35;4.60;;;4.20;;
68653;SDS011;55636;51.108;13.622;2023-04-24T01:17:37;5.03;;;4.40;;
68653;SDS011;55636;51.108;13.622;2023-04-24T01:18:42;5.00;;;4.50;;
68653;SDS011;55636;51.108;13.622;2023-04-24T01:19:45;5.10;;;4.60;;
68653;SDS011;55636;51.108;13.622;2023-04-24T01:20:48;4.87;;;4.47;;
68653;SDS011;55636;51.108;13.622;2023-04-24T01:21:54;4.83;;;4.40;;
68653;SDS011;55636;51.108;13.622;2023-04-24T01:23:03;4.60;;;4.20;;
68653;SDS011;55636;51.108;13.622;2023-04-24T01:24:07;4.90;;;4.40;;
68653;SDS011;55636;51.108;13.622;2023-04-24T01:25:10;4.80;;;4.30;;
68653;SDS011;55636;51.108;13.622;2023-04-24T01:26:16;4.53;;;4.13;;
68653;SDS011;55636;51.108;13.622;2023-04-24T01:27:19;6.13;;;4.20;;
68653;SDS011;55636;51.108;13.622;2023-04-24T01:28:22;5.30;;;4.30;;
68653;SDS011;55636;51.108;13.622;2023-04-24T01:29:24;4.77;;;4.30;;
68653;SDS011;55636;51.108;13.622;2023-04-24T01:30:27;4.83;;;4.40;;
68653;SDS011;55636;51.108;13.622;2023-04-24T01:31:31;4.70;;;4.20;;
68653;SDS011;55636;51.108;13.622;2023-04-24T01:32:34;5.07;;;4.37;;
68653;SDS011;55636;51.108;13.622;2023-04-24T01:33:38;4.70;;;4.30;;
68653;SDS011;55636;51.108;13.622;2023-04-24T01:34:40;4.80;;;4.27;;
68653;SDS011;55636;51.108;13.622;2023-04-24T01:35:44;5.13;;;4.63;;
68653;SDS011;55636;51.108;13.622;2023-04-24T01:36:46;5.40;;;4.90;;
68653;SDS011;55636;51.108;13.622;2023-04-24T01:37:49;4.60;;;4.20;;
68653;SDS011;55636;51.108;13.622;2023-04-24T01:38:52;5.03;;;4.53;;
68653;SDS011;55636;51.108;13.622;2023-04-24T01:39:54;4.80;;;4.30;;
68653;SDS011;55636;51.108;13.622;2023-04-24T01:40:57;4.50;;;4.10;;
68653;SDS011;55636;51.108;13.622;2023-04-24T01:41:59;4.53;;;4.13;;
68653;SDS011;55636;51.108;13.622;2023-04-24T01:43:02;5.70;;;4.63;;
68653;SDS011;55636;51.108;13.622;2023-04-24T01:44:06;5.23;;;4.73;;
68653;SDS011;55636;51.108;13.622;2023-04-24T01:45:10;4.50;;;4.00;;
68653;SDS011;55636;51.108;13.622;2023-04-24T01:46:13;6.10;;;5.00;;
68653;SDS011;55636;51.108;13.622;2023-04-24T01:47:16;4.83;;;4.30;;
68653;SDS011;55636;51.108;13.622;2023-04-24T01:48:18;5.00;;;4.50;;
68653;SDS011;55636;51.108;13.622;2023-04-24T01:49:21;6.07;;;4.57;;
68653;SDS011;55636;51.108;13.622;2023-04-24T01:50:23;4.67;;;4.27;;
68653;SDS011;55636;51.108;13.622;2023-04-24T01:51:26;5.60;;;4.73;;
68653;SDS011;55636;51.108;13.622;2023-04-24T01:52:28;5.47;;;4.33;;
68653;SDS011;55636;51.108;13.622;2023-04-24T01:53:33;4.57;;;4.00;;
68653;SDS011;55636;51.108;13.622;2023-04-24T01:54:37;4.73;;;4.17;;
68653;SDS011;55636;51.108;13.622;2023-04-24T01:55:40;5.50;;;4.57;;
68653;SDS011;55636;51.108;13.622;2023-04-24T01:56:43;4.90;;;4.10;;
68653;SDS011;55636;51.108;13.622;2023-04-24T01:57:45;4.83;;;4.13;;
68653;SDS011;55636;51.108;13.622;2023-04-24T01:58:51;4.80;;;4.30;;
68653;SDS011;55636;51.108;13.622;2023-04-24T01:59:55;4.50;;;4.10;;
68653;SDS011;55636;51.108;13.622;2023-04-24T02:00:59;6.27;;;3.77;;
68653;SDS011;55636;51.108;13.622;2023-04-24T02:02:03;4.83;;;4.40;;
68653;SDS011;55636;51.108;13.622;2023-04-24T02:03:05;4.60;;;4.20;;
68653;SDS011;55636;51.108;13.622;2023-04-24T02:04:11;4.63;;;4.20;;
68653;SDS011;55636;51.108;13.622;2023-04-24T02:05:14;4.63;;;4.20;;
68653;SDS011;55636;51.108;13.622;2023-04-24T02:06:18;6.07;;;4.13;;
68653;SDS011;55636;51.108;13.622;2023-04-24T02:07:20;4.87;;;4.37;;
68653;SDS011;55636;51.108;13.622;2023-04-24T02:08:23;5.33;;;4.30;;
68653;SDS011;55636;51.108;13.622;2023-04-24T02:09:25;5.10;;;4.50;;
68653;SDS011;55636;51.108;13.622;2023-04-24T02:10:28;5.10;;;4.10;;
68653;SDS011;55636;51.108;13.622;2023-04-24T02:11:33;6.00;;;4.30;;
68653;SDS011;55636;51.108;13.622;2023-04-24T02:12:35;4.70;;;4.27;;
68653;SDS011;55636;51.108;13.622;2023-04-24T02:13:38;4.87;;;4.30;;
68653;SDS011;55636;51.108;13.622;2023-04-24T02:14:40;4.87;;;4.37;;
68653;SDS011;55636;51.108;13.622;2023-04-24T02:15:45;5.67;;;4.10;;
68653;SDS011;55636;51.108;13.622;2023-04-24T02:16:48;4.60;;;4.20;;
68653;SDS011;55636;51.108;13.622;2023-04-24T02:17:50;4.87;;;4.37;;
68653;SDS011;55636;51.108;13.622;2023-04-24T02:18:52;4.53;;;4.13;;
68653;SDS011;55636;51.108;13.622;2023-04-24T02:19:54;4.63;;;4.23;;
68653;SDS011;55636;51.108;13.622;2023-04-24T02:20:58;4.93;;;4.33;;
68653;SDS011;55636;51.108;13.622;2023-04-24T02:22:01;4.70;;;4.30;;
68653;SDS011;55636;51.108;13.622;2023-04-24T02:23:03;5.07;;;4.37;;
68653;SDS011;55636;51.108;13.622;2023-04-24T02:24:05;5.00;;;4.50;;
68653;SDS011;55636;51.108;13.622;2023-04-24T02:25:07;5.20;;;4.40;;
68653;SDS011;55636;51.108;13.622;2023-04-24T02:26:11;4.50;;;4.10;;
68653;SDS011;55636;51.108;13.622;2023-04-24T02:27:13;4.77;;;4.37;;
68653;SDS011;55636;51.108;13.622;2023-04-24T02:28:16;4.70;;;4.07;;
68653;SDS011;55636;51.108;13.622;2023-04-24T02:29:18;4.67;;;4.20;;
68653;SDS011;55636;51.108;13.622;2023-04-24T02:30:24;4.50;;;4.10;;
68653;SDS011;55636;51.108;13.622;2023-04-24T02:31:27;4.87;;;4.37;;
68653;SDS011;55636;51.108;13.622;2023-04-24T02:32:30;5.30;;;4.20;;
68653;SDS011;55636;51.108;13.622;2023-04-24T02:33:33;5.57;;;4.37;;
68653;SDS011;55636;51.108;13.622;2023-04-24T02:34:35;5.60;;;4.63;;
68653;SDS011;55636;51.108;13.622;2023-04-24T02:35:39;4.70;;;4.30;;
68653;SDS011;55636;51.108;13.622;2023-04-24T02:36:42;5.27;;;4.10;;
68653;SDS011;55636;51.108;13.622;2023-04-24T02:37:45;5.07;;;4.57;;
68653;SDS011;55636;51.108;13.622;2023-04-24T02:38:48;5.83;;;4.40;;
68653;SDS011;55636;51.108;13.622;2023-04-24T02:39:51;4.60;;;4.07;;
68653;SDS011;55636;51.108;13.622;2023-04-24T02:40:54;4.93;;;4.20;;
68653;SDS011;55636;51.108;13.622;2023-04-24T02:41:57;4.30;;;3.90;;
68653;SDS011;55636;51.108;13.622;2023-04-24T02:43:00;4.80;;;4.30;;
68653;SDS011;55636;51.108;13.622;2023-04-24T02:44:02;4.57;;;4.13;;
68653;SDS011;55636;51.108;13.622;2023-04-24T02:45:05;5.30;;;4.67;;
68653;SDS011;55636;51.108;13.622;2023-04-24T02:46:08;5.37;;;4.53;;
68653;SDS011;55636;51.108;13.622;2023-04-24T02:47:10;4.80;;;4.13;;
68653;SDS011;55636;51.108;13.622;2023-04-24T02:48:13;5.10;;;4.30;;
68653;SDS011;55636;51.108;13.622;2023-04-24T02:49:17;4.83;;;4.30;;
68653;SDS011;55636;51.108;13.622;2023-04-24T02:50:19;4.93;;;4.30;;
68653;SDS011;55636;51.108;13.622;2023-04-24T02:51:23;4.90;;;4.40;;
68653;SDS011;55636;51.108;13.622;2023-04-24T02:52:25;5.10;;;4.40;;
68653;SDS011;55636;51.108;13.622;2023-04-24T02:53:28;5.37;;;4.50;;
68653;SDS011;55636;51.108;13.622;2023-04-24T02:54:32;5.60;;;4.60;;
68653;SDS011;55636;51.108;13.622;2023-04-24T02:55:35;4.90;;;4.40;;
68653;SDS011;55636;51.108;13.622;2023-04-24T02:56:38;4.63;;;4.20;;
68653;SDS011;55636;51.108;13.622;2023-04-24T02:57:41;4.53;;;4.13;;
68653;SDS011;55636;51.108;13.622;2023-04-24T02:58:43;4.70;;;4.13;;
68653;SDS011;55636;51.108;13.622;2023-04-24T02:59:46;4.47;;;4.07;;
68653;SDS011;55636;51.108;13.622;2023-04-24T03:00:48;5.07;;;4.57;;
68653;SDS011;55636;51.108;13.622;2023-04-24T03:01:55;5.83;;;4.50;;
68653;SDS011;55636;51.108;13.622;2023-04-24T03:02:57;5.23;;;4.33;;
68653;SDS011;55636;51.108;13.622;2023-04-24T03:04:01;6.20;;;4.17;;
68653;SDS011;55636;51.108;13.622;2023-04-24T03:05:04;4.47;;;4.07;;
68653;SDS011;55636;51.108;13.622;2023-04-24T03:06:06;4.03;;;3.63;;
68653;SDS011;55636;51.108;13.622;2023-04-24T03:07:10;4.03;;;3.63;;
68653;SDS011;55636;51.108;13.622;2023-04-24T03:08:12;4.30;;;3.80;;
68653;SDS011;55636;51.108;13.622;2023-04-24T03:09:14;5.90;;;3.87;;
68653;SDS011;55636;51.108;13.622;2023-04-24T03:10:17;3.90;;;3.60;;
68653;SDS011;55636;51.108;13.622;2023-04-24T03:11:19;6.57;;;3.80;;
68653;SDS011;55636;51.108;13.622;2023-04-24T03:12:22;4.40;;;4.00;;
68653;SDS011;55636;51.108;13.622;2023-04-24T03:13:25;4.63;;;3.77;;
68653;SDS011;55636;51.108;13.622;2023-04-24T03:14:28;4.53;;;3.67;;
68653;SDS011;55636;51.108;13.622;2023-04-24T03:15:38;4.40;;;3.87;;
68653;SDS011;55636;51.108;13.622;2023-04-24T03:16:42;4.33;;;3.93;;
68653;SDS011;55636;51.108;13.622;2023-04-24T03:17:44;4.50;;;3.60;;
68653;SDS011;55636;51.108;13.622;2023-04-24T03:18:47;4.20;;;3.80;;
68653;SDS011;55636;51.108;13.622;2023-04-24T03:19:50;4.57;;;3.77;;
68653;SDS011;55636;51.108;13.622;2023-04-24T03:20:52;3.80;;;3.40;;
68653;SDS011;55636;51.108;13.622;2023-04-24T03:21:56;4.30;;;3.50;;
68653;SDS011;55636;51.108;13.622;2023-04-24T03:22:58;4.20;;;3.63;;
68653;SDS011;55636;51.108;13.622;2023-04-24T03:24:01;4.63;;;3.53;;
68653;SDS011;55636;51.108;13.622;2023-04-24T03:25:04;4.30;;;3.43;;
68653;SDS011;55636;51.108;13.622;2023-04-24T03:26:07;4.27;;;3.70;;
68653;SDS011;55636;51.108;13.622;2023-04-24T03:27:13;4.67;;;4.23;;
68653;SDS011;55636;51.108;13.622;2023-04-24T03:28:41;4.47;;;3.87;;
68653;SDS011;55636;51.108;13.622;2023-04-24T03:29:44;4.97;;;3.57;;
68653;SDS011;55636;51.108;13.622;2023-04-24T03:30:47;5.10;;;3.40;;
68653;SDS011;55636;51.108;13.622;2023-04-24T03:31:51;3.77;;;3.37;;
68653;SDS011;55636;51.108;13.622;2023-04-24T03:32:54;3.70;;;3.17;;
68653;SDS011;55636;51.108;13.622;2023-04-24T03:34:01;4.97;;;3.50;;
68653;SDS011;55636;51.108;13.622;2023-04-24T03:35:03;3.97;;;3.30;;
68653;SDS011;55636;51.108;13.622;2023-04-24T03:36:06;3.20;;;2.90;;
68653;SDS011;55636;51.108;13.622;2023-04-24T03:37:16;5.07;;;3.60;;
68653;SDS011;55636;51.108;13.622;2023-04-24T03:38:25;4.27;;;3.43;;
68653;SDS011;55636;51.108;13.622;2023-04-24T03:39:33;4.30;;;3.10;;
68653;SDS011;55636;51.108;13.622;2023-04-24T03:40:36;4.00;;;3.40;;
68653;SDS011;55636;51.108;13.622;2023-04-24T03:41:46;3.47;;;3.10;;
68653;SDS011;55636;51.108;13.622;2023-04-24T03:42:52;4.03;;;3.10;;
68653;SDS011;55636;51.108;13.622;2023-04-24T03:43:55;3.13;;;2.83;;
68653;SDS011;55636;51.108;13.622;2023-04-24T03:44:57;4.07;;;2.83;;
68653;SDS011;55636;51.108;13.622;2023-04-24T03:46:05;4.20;;;2.83;;
68653;SDS011;55636;51.108;13.622;2023-04-24T03:47:12;3.23;;;2.73;;
68653;SDS011;55636;51.108;13.622;2023-04-24T03:48:15;4.77;;;2.83;;
68653;SDS011;55636;51.108;13.622;2023-04-24T03:49:17;2.60;;;2.40;;
68653;SDS011;55636;51.108;13.622;2023-04-24T03:50:22;2.87;;;2.50;;
68653;SDS011;55636;51.108;13.622;2023-04-24T03:51:24;2.53;;;2.00;;
68653;SDS011;55636;51.108;13.622;2023-04-24T03:52:30;2.37;;;2.17;;
68653;SDS011;55636;51.108;13.622;2023-04-24T03:53:33;2.07;;;1.90;;
68653;SDS011;55636;51.108;13.622;2023-04-24T03:54:36;2.10;;;1.90;;
68653;SDS011;55636;51.108;13.622;2023-04-24T03:55:39;2.23;;;2.00;;
68653;SDS011;55636;51.108;13.622;2023-04-24T03:56:43;2.67;;;1.70;;
68653;SDS011;55636;51.108;13.622;2023-04-24T03:57:46;1.70;;;1.60;;
68653;SDS011;55636;51.108;13.622;2023-04-24T03:58:55;1.50;;;1.40;;
68653;SDS011;55636;51.108;13.622;2023-04-24T03:59:58;3.30;;;1.67;;
68653;SDS011;55636;51.108;13.622;2023-04-24T04:01:01;1.70;;;1.60;;
68653;SDS011;55636;51.108;13.622;2023-04-24T04:02:26;2.73;;;1.47;;
68653;SDS011;55636;51.108;13.622;2023-04-24T04:03:29;1.80;;;1.40;;
68653;SDS011;55636;51.108;13.622;2023-04-24T04:04:32;2.57;;;1.40;;
68653;SDS011;55636;51.108;13.622;2023-04-24T04:05:34;1.30;;;1.20;;
68653;SDS011;55636;51.108;13.622;2023-04-24T04:06:37;1.60;;;1.50;;
68653;SDS011;55636;51.108;13.622;2023-04-24T04:07:39;1.43;;;1.33;;
68653;SDS011;55636;51.108;13.622;2023-04-24T04:08:42;2.20;;;1.43;;
68653;SDS011;55636;51.108;13.622;2023-04-24T04:09:45;2.23;;;1.40;;
68653;SDS011;55636;51.108;13.622;2023-04-24T04:10:47;2.33;;;1.50;;
68653;SDS011;55636;51.108;13.622;2023-04-24T04:11:50;1.30;;;1.20;;
68653;SDS011;55636;51.108;13.622;2023-04-24T04:12:52;1.43;;;1.30;;
68653;SDS011;55636;51.108;13.622;2023-04-24T04:13:55;1.37;;;1.27;;
68653;SDS011;55636;51.108;13.622;2023-04-24T04:14:58;1.40;;;1.30;;
68653;SDS011;55636;51.108;13.622;2023-04-24T04:16:02;1.60;;;1.50;;
68653;SDS011;55636;51.108;13.622;2023-04-24T04:17:04;1.50;;;1.40;;
68653;SDS011;55636;51.108;13.622;2023-04-24T04:18:07;2.43;;;1.40;;
68653;SDS011;55636;51.108;13.622;2023-04-24T04:19:10;1.47;;;1.37;;
68653;SDS011;55636;51.108;13.622;2023-04-24T04:20:13;1.30;;;1.20;;
68653;SDS011;55636;51.108;13.622;2023-04-24T04:21:15;1.80;;;1.33;;
68653;SDS011;55636;51.108;13.622;2023-04-24T04:22:18;1.27;;;1.17;;
68653;SDS011;55636;51.108;13.622;2023-04-24T04:23:23;1.50;;;1.20;;
68653;SDS011;55636;51.108;13.622;2023-04-24T04:24:38;1.10;;;1.10;;
68653;SDS011;55636;51.108;13.622;2023-04-24T04:25:44;1.57;;;1.40;;
68653;SDS011;55636;51.108;13.622;2023-04-24T04:26:46;1.50;;;1.40;;
68653;SDS011;55636;51.108;13.622;2023-04-24T04:27:59;4.30;;;1.10;;
68653;SDS011;55636;51.108;13.622;2023-04-24T04:29:02;1.40;;;1.30;;
68653;SDS011;55636;51.108;13.622;2023-04-24T04:30:06;2.10;;;1.50;;
68653;SDS011;55636;51.108;13.622;2023-04-24T04:31:21;2.23;;;1.20;;
68653;SDS011;55636;51.108;13.622;2023-04-24T04:32:24;2.63;;;1.30;;
68653;SDS011;55636;51.108;13.622;2023-04-24T04:33:27;1.47;;;1.27;;
68653;SDS011;55636;51.108;13.622;2023-04-24T04:34:29;1.40;;;1.20;;
68653;SDS011;55636;51.108;13.622;2023-04-24T04:35:33;2.07;;;1.30;;
68653;SDS011;55636;51.108;13.622;2023-04-24T04:36:36;1.30;;;1.20;;
68653;SDS011;55636;51.108;13.622;2023-04-24T04:38:04;1.87;;;1.27;;
68653;SDS011;55636;51.108;13.622;2023-04-24T04:39:32;1.40;;;1.30;;
68653;SDS011;55636;51.108;13.622;2023-04-24T04:40:45;1.40;;;1.30;;
68653;SDS011;55636;51.108;13.622;2023-04-24T04:41:49;1.20;;;1.10;;
68653;SDS011;55636;51.108;13.622;2023-04-24T04:42:54;1.83;;;1.40;;
68653;SDS011;55636;51.108;13.622;2023-04-24T04:43:58;1.73;;;1.43;;
68653;SDS011;55636;51.108;13.622;2023-04-24T04:45:00;1.37;;;1.20;;
68653;SDS011;55636;51.108;13.622;2023-04-24T04:46:13;1.65;;;1.30;;
68653;SDS011;55636;51.108;13.622;2023-04-24T04:47:39;1.47;;;1.33;;
68653;SDS011;55636;51.108;13.622;2023-04-24T04:48:43;1.77;;;1.30;;
68653;SDS011;55636;51.108;13.622;2023-04-24T04:49:46;1.75;;;1.27;;
68653;SDS011;55636;51.108;13.622;2023-04-24T04:50:54;1.58;;;1.30;;
68653;SDS011;55636;51.108;13.622;2023-04-24T04:51:57;1.33;;;1.23;;
68653;SDS011;55636;51.108;13.622;2023-04-24T04:53:01;4.70;;;1.43;;
68653;SDS011;55636;51.108;13.622;2023-04-24T04:54:07;2.60;;;1.47;;
68653;SDS011;55636;51.108;13.622;2023-04-24T04:55:11;1.70;;;1.30;;
68653;SDS011;55636;51.108;13.622;2023-04-24T04:56:50;4.40;;;1.63;;
68653;SDS011;55636;51.108;13.622;2023-04-24T04:57:53;6.40;;;1.80;;
68653;SDS011;55636;51.108;13.622;2023-04-24T04:58:57;3.87;;;1.90;;
68653;SDS011;55636;51.108;13.622;2023-04-24T05:00:01;7.53;;;2.03;;
68653;SDS011;55636;51.108;13.622;2023-04-24T05:01:15;4.13;;;1.87;;
68653;SDS011;55636;51.108;13.622;2023-04-24T05:02:21;2.77;;;1.60;;
68653;SDS011;55636;51.108;13.622;2023-04-24T05:03:23;3.28;;;1.40;;
68653;SDS011;55636;51.108;13.622;2023-04-24T05:04:32;3.30;;;1.50;;
68653;SDS011;55636;51.108;13.622;2023-04-24T05:05:35;2.22;;;1.60;;
68653;SDS011;55636;51.108;13.622;2023-04-24T05:06:37;1.35;;;1.25;;
68653;SDS011;55636;51.108;13.622;2023-04-24T05:07:40;3.30;;;1.87;;
68653;SDS011;55636;51.108;13.622;2023-04-24T05:08:43;1.38;;;1.27;;
68653;SDS011;55636;51.108;13.622;2023-04-24T05:09:56;1.33;;;1.23;;
68653;SDS011;55636;51.108;13.622;2023-04-24T05:10:59;4.03;;;1.60;;
68653;SDS011;55636;51.108;13.622;2023-04-24T05:12:03;2.30;;;1.40;;
68653;SDS011;55636;51.108;13.622;2023-04-24T05:13:13;2.63;;;1.50;;
68653;SDS011;55636;51.108;13.622;2023-04-24T05:14:18;1.60;;;1.30;;
68653;SDS011;55636;51.108;13.622;2023-04-24T05:15:21;1.38;;;1.20;;
68653;SDS011;55636;51.108;13.622;2023-04-24T05:16:23;1.30;;;1.10;;
68653;SDS011;55636;51.108;13.622;2023-04-24T05:17:28;2.15;;;1.27;;
68653;SDS011;55636;51.108;13.622;2023-04-24T05:18:31;1.80;;;1.40;;
68653;SDS011;55636;51.108;13.622;2023-04-24T05:19:35;2.08;;;1.40;;
68653;SDS011;55636;51.108;13.622;2023-04-24T05:20:41;1.48;;;1.38;;
68653;SDS011;55636;51.108;13.622;2023-04-24T05:21:45;3.17;;;1.30;;
68653;SDS011;55636;51.108;13.622;2023-04-24T05:22:49;2.45;;;1.48;;
68653;SDS011;55636;51.108;13.622;2023-04-24T05:23:52;1.40;;;1.30;;
68653;SDS011;55636;51.108;13.622;2023-04-24T05:25:08;1.30;;;1.20;;
68653;SDS011;55636;51.108;13.622;2023-04-24T05:26:15;2.40;;;1.48;;
68653;SDS011;55636;51.108;13.622;2023-04-24T05:27:17;1.50;;;1.40;;
68653;SDS011;55636;51.108;13.622;2023-04-24T05:28:20;1.83;;;1.60;;
68653;SDS011;55636;51.108;13.622;2023-04-24T05:29:34;1.40;;;1.30;;
68653;SDS011;55636;51.108;13.622;2023-04-24T05:30:38;2.10;;;1.45;;
68653;SDS011;55636;51.108;13.622;2023-04-24T05:31:42;1.45;;;1.35;;
68653;SDS011;55636;51.108;13.622;2023-04-24T05:32:45;1.30;;;1.20;;
68653;SDS011;55636;51.108;13.622;2023-04-24T05:33:48;1.50;;;1.40;;
68653;SDS011;55636;51.108;13.622;2023-04-24T05:34:50;1.98;;;1.48;;
68653;SDS011;55636;51.108;13.622;2023-04-24T05:35:55;1.58;;;1.30;;
68653;SDS011;55636;51.108;13.622;2023-04-24T05:36:57;1.60;;;1.30;;
68653;SDS011;55636;51.108;13.622;2023-04-24T05:38:00;1.92;;;1.38;;
68653;SDS011;55636;51.108;13.622;2023-04-24T05:39:03;2.25;;;1.45;;
68653;SDS011;55636;51.108;13.622;2023-04-24T05:40:09;1.75;;;1.40;;
68653;SDS011;55636;51.108;13.622;2023-04-24T05:41:12;2.70;;;1.40;;
68653;SDS011;55636;51.108;13.622;2023-04-24T05:42:14;1.52;;;1.40;;
68653;SDS011;55636;51.108;13.622;2023-04-24T05:43:17;1.85;;;1.40;;
68653;SDS011;55636;51.108;13.622;2023-04-24T05:44:19;1.35;;;1.25;;
68653;SDS011;55636;51.108;13.622;2023-04-24T05:45:22;1.73;;;1.33;;
68653;SDS011;55636;51.108;13.622;2023-04-24T05:46:25;2.15;;;1.30;;
68653;SDS011;55636;51.108;13.622;2023-04-24T05:47:27;1.35;;;1.20;;
68653;SDS011;55636;51.108;13.622;2023-04-24T05:48:29;1.23;;;1.20;;
68653;SDS011;55636;51.108;13.622;2023-04-24T05:49:35;3.30;;;1.50;;
68653;SDS011;55636;51.108;13.622;2023-04-24T05:50:39;1.58;;;1.38;;
68653;SDS011;55636;51.108;13.622;2023-04-24T05:51:43;1.70;;;1.35;;
68653;SDS011;55636;51.108;13.622;2023-04-24T05:52:45;2.40;;;1.50;;
68653;SDS011;55636;51.108;13.622;2023-04-24T05:53:58;2.00;;;1.40;;
68653;SDS011;55636;51.108;13.622;2023-04-24T05:55:01;1.50;;;1.33;;
68653;SDS011;55636;51.108;13.622;2023-04-24T05:56:08;1.33;;;1.23;;
68653;SDS011;55636;51.108;13.622;2023-04-24T05:57:11;2.10;;;1.40;;
68653;SDS011;55636;51.108;13.622;2023-04-24T05:58:24;3.58;;;1.42;;
68653;SDS011;55636;51.108;13.622;2023-04-24T05:59:26;3.28;;;1.30;;
68653;SDS011;55636;51.108;13.622;2023-04-24T06:00:29;1.30;;;1.20;;
68653;SDS011;55636;51.108;13.622;2023-04-24T06:01:37;2.55;;;1.30;;
68653;SDS011;55636;51.108;13.622;2023-04-24T06:02:46;1.55;;;1.27;;
68653;SDS011;55636;51.108;13.622;2023-04-24T06:03:49;1.52;;;1.42;;
68653;SDS011;55636;51.108;13.622;2023-04-24T06:04:52;2.85;;;1.50;;
68653;SDS011;55636;51.108;13.622;2023-04-24T06:05:58;2.08;;;1.50;;
68653;SDS011;55636;51.108;13.622;2023-04-24T06:07:01;2.85;;;1.60;;
68653;SDS011;55636;51.108;13.622;2023-04-24T06:08:04;2.53;;;1.50;;
68653;SDS011;55636;51.108;13.622;2023-04-24T06:09:10;1.33;;;1.23;;
68653;SDS011;55636;51.108;13.622;2023-04-24T06:10:13;2.05;;;1.30;;
68653;SDS011;55636;51.108;13.622;2023-04-24T06:11:18;3.33;;;1.50;;
68653;SDS011;55636;51.108;13.622;2023-04-24T06:12:21;2.30;;;1.27;;
68653;SDS011;55636;51.108;13.622;2023-04-24T06:13:32;3.47;;;1.40;;
68653;SDS011;55636;51.108;13.622;2023-04-24T06:14:53;1.95;;;1.33;;
68653;SDS011;55636;51.108;13.622;2023-04-24T06:16:23;2.65;;;1.30;;
68653;SDS011;55636;51.108;13.622;2023-04-24T06:17:32;2.65;;;1.30;;
68653;SDS011;55636;51.108;13.622;2023-04-24T06:18:35;1.77;;;1.42;;
68653;SDS011;55636;51.108;13.622;2023-04-24T06:19:38;2.00;;;1.40;;
68653;SDS011;55636;51.108;13.622;2023-04-24T06:20:41;1.20;;;1.10;;